createdAt,value
2018-03-30T00:02:01.774Z,41.33
2018-03-30T00:04:27.972Z,31.40
2018-03-30T00:06:54.192Z,46.50
2018-03-30T00:09:33.476Z,48.43
2018-03-30T00:11:59.683Z,47.20
2018-03-30T00:14:25.873Z,36.30
2018-03-30T00:16:52.115Z,45.10
2018-03-30T00:19:18.352Z,50.40
2018-03-30T00:21:44.570Z,41.97
2018-03-30T00:24:10.833Z,41.73
2018-03-30T00:26:37.053Z,45.23
2018-03-30T00:29:03.250Z,45.40
2018-03-30T00:31:30.216Z,37.37
2018-03-30T00:33:56.409Z,34.97
2018-03-30T00:36:22.633Z,48.17
2018-03-30T00:38:48.830Z,47.67
2018-03-30T00:41:15.052Z,43.23
2018-03-30T00:43:41.247Z,45.73
2018-03-30T00:46:08.243Z,46.50
2018-03-30T00:48:34.442Z,46.70
2018-03-30T00:51:00.685Z,49.47
2018-03-30T00:53:39.302Z,41.13
2018-03-30T00:56:05.672Z,42.73
2018-03-30T00:58:31.872Z,54.60
2018-03-30T01:00:58.064Z,48.27
2018-03-30T01:03:25.025Z,48.87
2018-03-30T01:05:51.241Z,52.37
2018-03-30T01:08:18.211Z,42.73
2018-03-30T01:10:44.476Z,45.33
2018-03-30T01:13:11.222Z,48.37
2018-03-30T01:15:38.674Z,52.37
2018-03-30T01:18:05.516Z,44.60
2018-03-30T01:20:32.155Z,51.97
2018-03-30T01:22:58.424Z,44.13
2018-03-30T01:25:25.351Z,48.50
2018-03-30T01:27:51.559Z,46.43
2018-03-30T01:30:17.772Z,46.70
2018-03-30T01:32:44.022Z,36.50
2018-03-30T01:35:10.220Z,39.43
2018-03-30T01:37:36.443Z,46.63
2018-03-30T01:40:02.661Z,42.23
2018-03-30T01:42:28.891Z,38.67
2018-03-30T01:44:55.146Z,53.27
2018-03-30T01:47:21.352Z,34.73
2018-03-30T01:49:47.614Z,50.90
2018-03-30T01:52:13.805Z,43.93
2018-03-30T01:54:40.016Z,45.53
2018-03-30T01:57:06.957Z,44.30
2018-03-30T01:59:33.916Z,40.83
2018-03-30T02:02:00.854Z,43.27
2018-03-30T02:04:27.784Z,45.00
2018-03-30T02:06:54.011Z,49.63
2018-03-30T02:09:20.953Z,45.47
2018-03-30T02:11:47.173Z,42.33
2018-03-30T02:14:13.369Z,42.50
2018-03-30T02:16:39.622Z,48.83
2018-03-30T02:19:05.820Z,38.10
2018-03-30T02:21:32.096Z,41.93
2018-03-30T02:23:58.332Z,38.97
2018-03-30T02:26:24.553Z,37.93
2018-03-30T02:28:50.740Z,42.17
2018-03-30T02:31:16.952Z,41.47
2018-03-30T02:33:43.183Z,41.43
2018-03-30T02:36:09.405Z,44.33
2018-03-30T02:38:35.598Z,36.83
2018-03-30T02:41:01.817Z,55.67
2018-03-30T02:43:28.010Z,48.83
2018-03-30T02:45:54.220Z,37.73
2018-03-30T02:48:20.446Z,45.67
2018-03-30T02:50:46.669Z,42.63
2018-03-30T02:53:13.613Z,52.23
2018-03-30T02:55:41.079Z,46.80
2018-03-30T02:58:07.281Z,51.83
2018-03-30T03:00:33.607Z,49.10
2018-03-30T03:03:00.164Z,56.73
2018-03-30T03:05:27.097Z,55.50
2018-03-30T03:07:53.317Z,63.00
2018-03-30T03:10:19.513Z,54.43
2018-03-30T03:12:45.730Z,65.73
2018-03-30T03:15:11.921Z,58.17
2018-03-30T03:17:38.879Z,55.50
2018-03-30T03:20:05.816Z,53.00
2018-03-30T03:22:32.799Z,50.67
2018-03-30T03:24:58.992Z,41.63
2018-03-30T03:27:25.944Z,50.23
2018-03-30T03:29:52.871Z,42.03
2018-03-30T03:32:19.079Z,45.63
2018-03-30T03:34:45.590Z,39.73
2018-03-30T03:37:11.843Z,42.27
2018-03-30T03:39:38.037Z,41.73
2018-03-30T03:42:04.497Z,38.40
2018-03-30T03:44:30.688Z,51.97
2018-03-30T03:46:56.916Z,38.33
2018-03-30T03:49:23.120Z,40.27
2018-03-30T03:51:50.245Z,46.23
2018-03-30T03:54:16.444Z,42.00
2018-03-30T03:56:42.640Z,40.33
2018-03-30T03:59:09.596Z,43.43
2018-03-30T04:01:35.812Z,55.40
2018-03-30T04:04:02.764Z,44.47
2018-03-30T04:06:29.805Z,39.63
2018-03-30T04:08:56.747Z,55.27
2018-03-30T04:11:23.696Z,49.67
2018-03-30T04:13:50.643Z,55.10
2018-03-30T04:16:17.580Z,53.13
2018-03-30T04:18:44.545Z,53.80
2018-03-30T04:21:10.808Z,49.57
2018-03-30T04:23:37.060Z,52.23
2018-03-30T04:26:03.252Z,54.83
2018-03-30T04:28:29.472Z,43.07
2018-03-30T04:30:55.665Z,51.00
2018-03-30T04:33:22.623Z,44.57
2018-03-30T04:35:49.692Z,45.97
2018-03-30T04:38:15.909Z,48.57
2018-03-30T04:40:42.846Z,55.63
2018-03-30T04:43:09.800Z,51.07
2018-03-30T04:45:36.737Z,46.00
2018-03-30T04:48:03.709Z,39.07
2018-03-30T04:50:29.906Z,50.00
2018-03-30T04:52:56.836Z,88.37
2018-03-30T04:55:23.052Z,95.17
2018-03-30T04:57:49.247Z,69.00
2018-03-30T05:00:15.472Z,58.50
2018-03-30T05:02:41.659Z,65.00
2018-03-30T05:05:07.881Z,63.53
2018-03-30T05:07:34.841Z,50.27
2018-03-30T05:10:01.060Z,52.60
2018-03-30T05:12:27.269Z,46.83
2018-03-30T05:14:53.456Z,54.37
2018-03-30T05:17:19.670Z,54.13
2018-03-30T05:19:46.613Z,53.20
2018-03-30T05:22:13.576Z,47.43
2018-03-30T05:24:39.788Z,48.83
2018-03-30T05:27:06.748Z,49.43
2018-03-30T05:29:32.944Z,53.40
2018-03-30T05:31:59.160Z,53.33
2018-03-30T05:34:25.360Z,40.83
2018-03-30T05:36:51.576Z,40.43
2018-03-30T05:39:17.769Z,39.37
2018-03-30T05:41:44.736Z,43.70
2018-03-30T05:44:10.937Z,44.77
2018-03-30T05:46:37.188Z,41.03
2018-03-30T05:49:04.145Z,38.20
2018-03-30T05:51:30.357Z,36.03
2018-03-30T05:53:57.293Z,36.10
2018-03-30T05:56:24.251Z,36.93
2018-03-30T05:58:51.176Z,41.97
2018-03-30T06:01:17.392Z,42.70
2018-03-30T06:03:43.576Z,46.83
2018-03-30T06:06:09.769Z,43.37
2018-03-30T06:08:35.980Z,47.67
2018-03-30T06:11:02.174Z,47.93
2018-03-30T06:13:28.409Z,39.97
2018-03-30T06:15:54.644Z,37.20
2018-03-30T06:18:20.868Z,43.70
2018-03-30T06:20:47.060Z,39.37
2018-03-30T06:23:14.035Z,39.57
2018-03-30T06:25:40.234Z,35.07
2018-03-30T06:28:07.196Z,49.47
2018-03-30T06:30:33.396Z,41.93
2018-03-30T06:33:00.360Z,34.77
2018-03-30T06:35:27.297Z,27.50
2018-03-30T06:37:54.265Z,38.60
2018-03-30T06:40:20.477Z,37.23
2018-03-30T06:42:46.700Z,32.20
2018-03-30T06:45:12.912Z,28.93
2018-03-30T06:47:39.136Z,27.87
2018-03-30T06:50:06.084Z,25.70
2018-03-30T06:52:32.309Z,29.90
2018-03-30T06:54:58.511Z,38.00
2018-03-30T06:57:24.759Z,33.17
2018-03-30T06:59:50.977Z,25.57
2018-03-30T07:02:17.168Z,26.07
2018-03-30T07:04:43.384Z,24.43
2018-03-30T07:07:10.308Z,22.90
2018-03-30T07:09:36.527Z,19.40
2018-03-30T07:12:02.958Z,22.03
2018-03-30T07:14:29.924Z,21.03
2018-03-30T07:16:56.860Z,28.43
2018-03-30T07:19:23.220Z,25.27
2018-03-30T07:21:50.152Z,32.20
2018-03-30T07:24:17.144Z,41.70
2018-03-30T07:26:43.335Z,41.87
2018-03-30T07:29:10.288Z,62.20
2018-03-30T07:31:36.504Z,62.47
2018-03-30T07:34:03.472Z,42.50
2018-03-30T07:36:29.677Z,37.70
2018-03-30T07:38:56.633Z,30.30
2018-03-30T07:41:23.580Z,36.20
2018-03-30T07:43:50.537Z,31.47
2018-03-30T07:46:16.728Z,27.67
2018-03-30T07:48:43.137Z,32.03
2018-03-30T07:51:09.652Z,28.60
2018-03-30T07:53:35.840Z,26.63
2018-03-30T07:56:02.804Z,24.30
2018-03-30T07:58:28.992Z,30.00
2018-03-30T08:00:55.205Z,23.53
2018-03-30T08:03:21.395Z,24.40
2018-03-30T08:05:47.609Z,26.33
2018-03-30T08:08:14.556Z,30.70
2018-03-30T08:10:41.512Z,27.67
2018-03-30T08:13:07.700Z,26.35
2018-03-30T08:15:33.917Z,32.75
2018-03-30T08:18:00.109Z,26.25
2018-03-30T08:20:26.328Z,29.47
2018-03-30T08:22:52.560Z,25.97
2018-03-30T08:25:18.788Z,23.17
2018-03-30T08:27:44.984Z,20.13
2018-03-30T08:30:11.931Z,24.80
2018-03-30T08:32:38.144Z,22.80
2018-03-30T08:35:04.412Z,21.15
2018-03-30T08:37:30.624Z,19.00
2018-03-30T08:39:57.564Z,16.60
2018-03-30T08:42:23.776Z,18.25
2018-03-30T08:44:49.967Z,16.03
2018-03-30T08:47:16.184Z,17.83
2018-03-30T08:49:42.379Z,15.10
2018-03-30T08:52:09.317Z,18.70
2018-03-30T08:54:36.276Z,19.10
2018-03-30T08:57:03.218Z,17.43
2018-03-30T08:59:29.701Z,18.87
2018-03-30T09:01:55.904Z,24.40
2018-03-30T09:04:22.131Z,20.93
2018-03-30T09:06:48.324Z,20.30
2018-03-30T09:09:14.545Z,16.63
2018-03-30T09:11:40.744Z,16.80
2018-03-30T09:14:07.028Z,21.73
2018-03-30T09:16:33.225Z,20.73
2018-03-30T09:18:59.444Z,19.13
2018-03-30T09:21:25.640Z,19.27
2018-03-30T09:23:51.884Z,16.90
2018-03-30T09:26:18.071Z,19.47
2018-03-30T09:28:45.037Z,21.77
2018-03-30T09:31:11.972Z,17.97
2018-03-30T09:33:38.936Z,20.90
2018-03-30T09:36:05.192Z,17.13
2018-03-30T09:38:31.418Z,19.03
2018-03-30T09:40:57.617Z,18.13
2018-03-30T09:43:23.816Z,17.27
2018-03-30T09:45:50.037Z,21.30
2018-03-30T09:48:16.228Z,14.83
2018-03-30T09:50:42.444Z,18.23
2018-03-30T09:53:08.697Z,18.90
2018-03-30T09:55:34.914Z,18.53
2018-03-30T09:58:01.116Z,23.17
2018-03-30T10:00:28.086Z,17.27
2018-03-30T10:02:54.295Z,19.70
2018-03-30T10:05:20.520Z,16.03
2018-03-30T10:07:47.453Z,19.37
2018-03-30T10:10:14.484Z,21.90
2018-03-30T10:12:40.744Z,17.90
2018-03-30T10:15:07.716Z,18.20
2018-03-30T10:17:33.904Z,21.23
2018-03-30T10:20:00.858Z,18.50
2018-03-30T10:22:27.792Z,17.00
2018-03-30T10:24:54.032Z,19.80
2018-03-30T10:27:20.972Z,17.87
2018-03-30T10:29:47.933Z,17.20
2018-03-30T10:32:14.132Z,17.40
2018-03-30T10:34:40.360Z,17.90
2018-03-30T10:37:06.553Z,14.60
2018-03-30T10:39:32.764Z,18.30
2018-03-30T10:41:58.961Z,19.20
2018-03-30T10:44:25.925Z,22.63
2018-03-30T10:46:52.133Z,16.23
2018-03-30T10:49:19.091Z,20.40
2018-03-30T10:51:46.027Z,19.23
2018-03-30T10:54:12.999Z,17.03
2018-03-30T10:56:39.217Z,18.63
2018-03-30T10:59:06.148Z,15.70
2018-03-30T11:01:33.141Z,16.23
2018-03-30T11:03:59.339Z,16.30
2018-03-30T11:06:26.301Z,13.93
2018-03-30T11:08:52.489Z,16.77
2018-03-30T11:11:18.718Z,16.77
2018-03-30T11:13:44.916Z,15.87
2018-03-30T11:16:11.133Z,14.57
2018-03-30T11:18:37.328Z,15.50
2018-03-30T11:21:04.280Z,14.73
2018-03-30T11:23:30.501Z,17.20
2018-03-30T11:25:57.457Z,14.97
2018-03-30T11:28:23.648Z,14.60
2018-03-30T11:30:49.863Z,14.70
2018-03-30T11:33:16.052Z,14.50
2018-03-30T11:35:49.240Z,13.17
2018-03-30T11:38:15.441Z,14.70
2018-03-30T11:40:42.395Z,12.23
2018-03-30T11:43:09.328Z,13.77
2018-03-30T11:45:35.549Z,13.60
2018-03-30T11:48:01.751Z,11.10
2018-03-30T11:50:27.998Z,14.20
2018-03-30T11:52:54.208Z,14.17
2018-03-30T11:55:20.449Z,14.87
2018-03-30T11:57:46.708Z,14.93
2018-03-30T12:00:13.677Z,15.90
2018-03-30T12:02:39.864Z,14.60
2018-03-30T12:05:06.100Z,14.73
2018-03-30T12:07:32.300Z,16.40
2018-03-30T12:09:58.490Z,18.00
2018-03-30T12:12:24.717Z,17.40
2018-03-30T12:14:50.928Z,13.67
2018-03-30T12:17:17.901Z,18.40
2018-03-30T12:19:44.105Z,17.45
2018-03-30T12:22:11.061Z,16.75
2018-03-30T12:24:38.040Z,15.57
2018-03-30T12:27:04.256Z,16.07
2018-03-30T12:29:30.450Z,15.20
2018-03-30T12:31:57.410Z,15.80
2018-03-30T12:34:24.340Z,16.70
2018-03-30T12:36:50.551Z,19.97
2018-03-30T12:39:16.756Z,19.17
2018-03-30T12:41:42.972Z,16.87
2018-03-30T12:44:09.163Z,17.90
2018-03-30T12:46:36.121Z,18.90
2018-03-30T12:49:02.325Z,14.53
2018-03-30T12:51:29.301Z,20.23
2018-03-30T12:53:55.496Z,15.33
2018-03-30T12:56:21.721Z,18.57
2018-03-30T12:58:47.934Z,12.90
2018-03-30T13:01:14.129Z,16.10
2018-03-30T13:03:40.349Z,17.33
2018-03-30T13:06:06.551Z,19.37
2018-03-30T13:08:33.520Z,14.40
2018-03-30T13:10:59.711Z,18.53
2018-03-30T13:13:25.931Z,17.80
2018-03-30T13:15:52.152Z,15.40
2018-03-30T13:18:18.369Z,19.20
2018-03-30T13:20:44.555Z,16.17
2018-03-30T13:23:10.796Z,21.10
2018-03-30T13:25:36.986Z,15.57
2018-03-30T13:28:03.201Z,21.13
2018-03-30T13:30:29.398Z,16.40
2018-03-30T13:32:55.616Z,20.40
2018-03-30T13:35:21.877Z,17.30
2018-03-30T13:37:48.096Z,18.00
2018-03-30T13:40:14.285Z,18.55
2018-03-30T13:42:41.253Z,17.00
2018-03-30T13:45:07.445Z,15.63
2018-03-30T13:47:34.405Z,17.73
2018-03-30T13:50:01.348Z,20.05
2018-03-30T13:52:30.388Z,16.23
2018-03-30T13:54:56.629Z,22.75
2018-03-30T14:00:42.562Z,21.90
2018-03-30T14:03:17.748Z,20.10
2018-03-30T14:08:46.224Z,16.57
2018-03-30T14:11:16.160Z,19.00
2018-03-30T14:13:42.384Z,16.77
2018-03-30T14:16:18.844Z,21.80
2018-03-30T14:18:55.716Z,17.87
2018-03-30T14:21:22.696Z,18.03
2018-03-30T14:23:48.982Z,19.93
2018-03-30T14:26:17.072Z,19.80
2018-03-30T14:28:46.072Z,22.07
2018-03-30T14:31:17.881Z,17.30
2018-03-30T14:33:44.132Z,19.73
2018-03-30T14:36:32.376Z,21.27
2018-03-30T14:41:57.960Z,18.20
2018-03-30T14:44:29.933Z,15.57
2018-03-30T14:46:59.181Z,19.13
2018-03-30T14:49:30.936Z,21.03
2018-03-30T14:55:14.508Z,21.57
2018-03-30T14:57:46.642Z,17.97
2018-03-30T15:00:19.870Z,20.60
2018-03-30T15:02:52.619Z,23.07
2018-03-30T15:08:35.888Z,23.50
2018-03-30T15:11:15.317Z,22.43
2018-03-30T15:13:45.420Z,22.63
2018-03-30T15:19:15.349Z,40.70
2018-03-30T15:21:49.489Z,25.90
2018-03-30T15:24:30.856Z,22.90
2018-03-30T15:27:06.335Z,20.13
2018-03-30T15:29:47.383Z,23.03
2018-03-30T15:32:19.488Z,22.47
2018-03-30T15:34:46.700Z,26.60
2018-03-30T15:37:14.616Z,26.60
2018-03-30T15:39:42.473Z,18.70
2018-03-30T15:42:13.312Z,23.60
2018-03-30T15:44:41.093Z,23.13
2018-03-30T15:47:08.301Z,22.73
2018-03-30T15:49:35.600Z,22.17
2018-03-30T15:52:10.317Z,18.90
2018-03-30T15:54:37.300Z,22.50
2018-03-30T15:57:04.341Z,27.50
2018-03-30T15:59:30.594Z,21.67
2018-03-30T16:01:56.792Z,20.10
2018-03-30T16:04:23.032Z,24.80
2018-03-30T16:06:49.270Z,31.83
2018-03-30T16:09:15.500Z,25.10
2018-03-30T16:11:43.463Z,21.20
2018-03-30T16:14:09.723Z,23.53
2018-03-30T16:16:36.732Z,23.10
2018-03-30T16:19:02.804Z,24.30
2018-03-30T16:21:28.907Z,21.40
2018-03-30T16:23:55.003Z,19.77
2018-03-30T16:26:21.100Z,19.83
2018-03-30T16:28:47.896Z,20.50
2018-03-30T16:31:13.974Z,20.53
2018-03-30T16:33:40.777Z,21.60
2018-03-30T16:36:07.132Z,23.47
2018-03-30T16:38:33.193Z,19.83
2018-03-30T16:40:59.246Z,24.93
2018-03-30T16:43:25.333Z,19.93
2018-03-30T16:45:52.124Z,22.73
2018-03-30T16:48:18.208Z,22.00
2018-03-30T16:50:44.269Z,24.15
2018-03-30T16:53:10.745Z,28.17
2018-03-30T16:55:37.180Z,23.70
2018-03-30T16:58:04.004Z,20.60
2018-03-30T17:00:30.073Z,24.93
2018-03-30T17:02:56.177Z,22.00
2018-03-30T17:05:22.971Z,24.47
2018-03-30T17:07:49.065Z,32.10
2018-03-30T17:10:15.125Z,21.80
2018-03-30T17:12:41.212Z,21.50
2018-03-30T17:15:08.025Z,20.30
2018-03-30T17:17:34.116Z,20.83
2018-03-30T17:20:00.214Z,21.30
2018-03-30T17:22:26.305Z,21.97
2018-03-30T17:24:52.401Z,19.93
2018-03-30T17:27:18.483Z,21.17
2018-03-30T17:29:45.305Z,18.23
2018-03-30T17:32:11.375Z,18.87
2018-03-30T17:34:37.467Z,26.87
2018-03-30T17:37:04.272Z,81.07
2018-03-30T17:39:30.423Z,28.13
2018-03-30T17:41:56.508Z,19.00
2018-03-30T17:44:22.564Z,19.30
2018-03-30T17:46:48.616Z,20.03
2018-03-30T17:49:15.433Z,18.93
2018-03-30T17:51:41.497Z,22.80
2018-03-30T17:54:07.584Z,16.00
2018-03-30T17:56:33.677Z,20.20
2018-03-30T17:58:59.761Z,17.20
2018-03-30T18:01:26.566Z,17.43
2018-03-30T18:03:52.652Z,23.77
2018-03-30T18:06:18.720Z,18.90
2018-03-30T18:08:44.801Z,19.30
2018-03-30T18:11:10.856Z,18.87
2018-03-30T18:13:36.944Z,20.70
2018-03-30T18:16:02.995Z,21.05
2018-03-30T18:18:29.056Z,21.77
2018-03-30T18:20:55.868Z,20.33
2018-03-30T18:23:21.924Z,22.60
2018-03-30T18:25:48.028Z,26.87
2018-03-30T18:28:14.101Z,22.30
2018-03-30T18:30:40.927Z,21.53
2018-03-30T18:33:06.984Z,21.30
2018-03-30T18:35:33.072Z,21.40
2018-03-30T18:37:59.152Z,17.85
2018-03-30T18:40:25.228Z,29.83
2018-03-30T18:42:51.280Z,23.33
2018-03-30T18:45:18.112Z,26.93
2018-03-30T18:47:44.903Z,24.33
2018-03-30T18:50:10.960Z,19.20
2018-03-30T18:52:37.822Z,28.30
2018-03-30T18:55:04.624Z,26.40
2018-03-30T18:57:30.739Z,20.20
2018-03-30T18:59:56.787Z,24.07
2018-03-30T19:02:22.928Z,25.93
2018-03-30T19:04:49.376Z,24.90
2018-03-30T19:07:16.199Z,21.70
2018-03-30T19:09:42.252Z,26.30
2018-03-30T19:12:09.106Z,25.40
2018-03-30T19:14:35.168Z,23.70
2018-03-30T19:17:01.280Z,23.83
2018-03-30T19:19:27.335Z,26.40
2018-03-30T19:21:53.422Z,24.23
2018-03-30T19:24:19.525Z,27.77
2018-03-30T19:26:46.393Z,24.73
2018-03-30T19:29:12.454Z,27.13
2018-03-30T19:31:38.564Z,28.23
2018-03-30T19:34:04.648Z,26.07
2018-03-30T19:36:31.471Z,26.80
2018-03-30T19:38:57.528Z,28.47
2018-03-30T19:41:23.589Z,36.50
2018-03-30T19:43:49.676Z,29.03
2018-03-30T19:46:16.524Z,27.40
2018-03-30T19:48:42.721Z,30.47
2018-03-30T19:51:08.808Z,23.20
2018-03-30T19:53:34.897Z,30.07
2018-03-30T19:56:01.702Z,26.23
2018-03-30T19:58:27.820Z,28.17
2018-03-30T20:00:53.880Z,29.67
2018-03-30T20:03:20.740Z,27.17
2018-03-30T20:05:46.809Z,30.43
2018-03-30T20:08:12.990Z,22.73
2018-03-30T20:10:39.051Z,20.07
2018-03-30T20:13:05.222Z,24.33
2018-03-30T20:15:32.018Z,35.50
2018-03-30T20:17:58.117Z,32.90
2018-03-30T20:20:24.195Z,25.07
2018-03-30T20:22:50.248Z,29.27
2018-03-30T20:25:17.095Z,28.03
2018-03-30T20:27:43.899Z,33.50
2018-03-30T20:30:09.996Z,30.90
2018-03-30T20:32:36.057Z,22.43
2018-03-30T20:35:02.164Z,34.47
2018-03-30T20:37:28.228Z,26.27
2018-03-30T20:39:54.309Z,26.47
2018-03-30T20:42:20.362Z,30.47
2018-03-30T20:44:46.443Z,33.03
2018-03-30T20:47:12.516Z,36.47
2018-03-30T20:49:38.612Z,29.27
2018-03-30T20:52:04.662Z,38.53
2018-03-30T20:54:30.749Z,32.17
2018-03-30T20:56:56.820Z,34.13
2018-03-30T20:59:22.896Z,20.57
2018-03-30T21:01:48.960Z,34.83
2018-03-30T21:04:15.045Z,33.00
2018-03-30T21:06:41.118Z,32.50
2018-03-30T21:09:07.216Z,31.63
2018-03-30T21:11:33.281Z,35.43
2018-03-30T21:14:00.116Z,35.07
2018-03-30T21:16:26.171Z,30.07
2018-03-30T21:18:52.973Z,37.00
2018-03-30T21:21:19.060Z,38.07
2018-03-30T21:23:45.140Z,40.70
2018-03-30T21:26:11.252Z,41.80
2018-03-30T21:28:37.314Z,34.07
2018-03-30T21:31:04.154Z,42.33
2018-03-30T21:33:30.962Z,44.17
2018-03-30T21:35:57.049Z,36.17
2018-03-30T21:38:23.159Z,33.03
2018-03-30T21:40:49.233Z,32.17
2018-03-30T21:43:15.295Z,32.23
2018-03-30T21:45:42.121Z,29.70
2018-03-30T21:48:08.172Z,26.93
2018-03-30T21:50:34.996Z,21.60
2018-03-30T21:53:01.050Z,20.73
2018-03-30T21:55:27.144Z,27.83
2018-03-30T21:57:53.201Z,24.33
2018-03-30T22:00:19.288Z,19.60
2018-03-30T22:02:45.340Z,21.27
2018-03-30T22:05:12.429Z,21.73
2018-03-30T22:07:38.520Z,22.67
2018-03-30T22:10:05.668Z,21.53
2018-03-30T22:12:32.474Z,30.93
2018-03-30T22:14:58.533Z,25.73
2018-03-30T22:17:25.356Z,20.93
2018-03-30T22:19:51.418Z,21.90
2018-03-30T22:22:17.503Z,25.40
2018-03-30T22:24:43.588Z,17.47
2018-03-30T22:27:09.668Z,17.73
2018-03-30T22:29:35.788Z,21.60
2018-03-30T22:32:01.848Z,21.70
2018-03-30T22:34:27.935Z,21.57
2018-03-30T22:36:53.988Z,22.17
2018-03-30T22:39:20.815Z,22.83
2018-03-30T22:41:46.876Z,19.17
2018-03-30T22:44:13.219Z,23.43
2018-03-30T22:46:39.304Z,21.87
2018-03-30T22:49:06.110Z,19.50
2018-03-30T22:51:32.204Z,23.67
2018-03-30T22:53:58.280Z,19.53
2018-03-30T22:56:24.357Z,24.13
2018-03-30T22:58:50.445Z,24.33
2018-03-30T23:01:17.256Z,27.07
2018-03-30T23:03:43.335Z,26.30
2018-03-30T23:06:09.401Z,22.53
2018-03-30T23:08:42.456Z,20.00
2018-03-30T23:11:08.508Z,19.40
2018-03-30T23:13:34.569Z,25.00
2018-03-30T23:16:00.656Z,25.40
2018-03-30T23:18:26.708Z,15.30
2018-03-30T23:20:52.783Z,25.50
2018-03-30T23:23:18.847Z,13.87
2018-03-30T23:25:44.960Z,30.03
2018-03-30T23:28:11.032Z,21.57
2018-03-30T23:30:37.136Z,22.00
2018-03-30T23:33:03.597Z,25.03
2018-03-30T23:35:30.419Z,25.73
2018-03-30T23:37:56.496Z,24.50
2018-03-30T23:40:22.597Z,21.40
2018-03-30T23:42:49.404Z,27.50
2018-03-30T23:45:15.491Z,29.60
2018-03-30T23:47:41.549Z,24.27
2018-03-30T23:50:07.632Z,30.43
2018-03-30T23:52:33.685Z,29.83
2018-03-30T23:55:00.014Z,23.40
2018-03-30T23:57:26.077Z,32.07
2018-03-30T23:59:52.152Z,26.90
